Time;durP1;ratioP1;P1;durP2;ratioP2;P2;SDS_P1;SDS_P2;PMS_P1;PMS_P2;Temp;Humidity;BMP_temperature;BMP_pressure;BME280_temperature;BME280_humidity;BME280_pressure;Samples;Min_cycle;Max_cycle;Signal;HPM_P1;HPM_P2
2023/09/12 00:00:47;;;;;;;20.52;9.60;;;19.80;99.90;;;;;;5020849;28;20078;-71
2023/09/12 00:03:12;;;;;;;20.40;10.10;;;19.80;99.90;;;;;;5018436;28;20464;-70
2023/09/12 00:05:38;;;;;;;19.73;10.10;;;19.80;99.90;;;;;;5015046;28;20041;-70
2023/09/12 00:08:04;;;;;;;23.33;10.30;;;19.80;99.90;;;;;;5002011;28;20052;-70
2023/09/12 00:10:30;;;;;;;19.42;9.65;;;19.80;99.90;;;;;;5019753;28;20037;-70
2023/09/12 00:12:55;;;;;;;21.27;10.60;;;19.80;99.90;;;;;;5016063;28;20510;-71
2023/09/12 00:15:21;;;;;;;21.67;10.93;;;19.80;99.90;;;;;;5017911;28;20045;-70
2023/09/12 00:17:48;;;;;;;21.08;10.20;;;19.80;99.90;;;;;;5016836;28;20037;-70
2023/09/12 00:20:14;;;;;;;21.38;9.85;;;19.80;99.90;;;;;;5017370;28;20052;-71
2023/09/12 00:22:40;;;;;;;24.02;10.10;;;19.80;99.90;;;;;;5019997;27;20033;-71
2023/09/12 00:25:06;;;;;;;22.70;10.27;;;19.80;99.90;;;;;;5021566;28;20029;-70
2023/09/12 00:27:31;;;;;;;22.50;10.43;;;19.80;99.90;;;;;;5016766;28;20517;-71
2023/09/12 00:29:57;;;;;;;21.92;9.93;;;19.80;99.90;;;;;;5016892;28;20289;-71
2023/09/12 00:32:22;;;;;;;22.63;10.10;;;19.80;99.90;;;;;;5020759;28;20048;-71
2023/09/12 00:34:48;;;;;;;20.30;9.48;;;19.70;99.90;;;;;;5018718;28;20407;-71
2023/09/12 00:37:13;;;;;;;23.13;10.48;;;19.70;99.90;;;;;;5021117;28;20044;-71
2023/09/12 00:39:39;;;;;;;20.85;9.85;;;19.70;99.90;;;;;;5018481;28;20033;-71
2023/09/12 00:42:07;;;;;;;22.10;10.20;;;19.70;99.90;;;;;;5016292;27;20398;-71
2023/09/12 00:44:33;;;;;;;22.38;10.70;;;19.70;99.90;;;;;;4994359;28;20042;-71
2023/09/12 00:47:01;;;;;;;23.35;11.02;;;19.70;99.90;;;;;;5016803;28;20608;-71
2023/09/12 00:49:27;;;;;;;22.40;11.35;;;19.70;99.90;;;;;;5028981;28;20041;-71
2023/09/12 00:51:56;;;;;;;21.00;10.18;;;19.70;99.90;;;;;;5018469;28;20056;-71
2023/09/12 00:54:22;;;;;;;20.83;11.07;;;19.70;99.90;;;;;;5019743;28;20041;-71
2023/09/12 00:56:47;;;;;;;22.10;11.15;;;19.70;99.90;;;;;;5012375;28;20036;-71
2023/09/12 00:59:15;;;;;;;21.08;10.48;;;19.70;99.90;;;;;;5016646;28;20483;-71
2023/09/12 01:01:41;;;;;;;24.67;10.93;;;19.70;99.90;;;;;;5023790;28;20106;-71
2023/09/12 01:04:07;;;;;;;22.95;10.77;;;19.60;99.90;;;;;;5016110;28;20050;-71
2023/09/12 01:06:34;;;;;;;23.08;11.15;;;19.60;99.90;;;;;;5020196;28;20092;-71
2023/09/12 01:09:00;;;;;;;25.60;11.25;;;19.60;99.90;;;;;;5013168;28;20046;-71
2023/09/12 01:11:27;;;;;;;26.13;11.00;;;19.60;99.90;;;;;;5012918;28;20129;-71
2023/09/12 01:13:52;;;;;;;23.38;10.80;;;19.60;99.90;;;;;;5020682;28;20490;-71
2023/09/12 01:16:18;;;;;;;23.83;10.13;;;19.60;99.90;;;;;;5019288;28;20048;-71
2023/09/12 01:18:45;;;;;;;21.58;10.93;;;19.60;99.90;;;;;;5018372;28;20037;-71
2023/09/12 01:21:32;;;;;;;24.02;10.88;;;19.60;99.90;;;;;;5017114;28;20038;-71
2023/09/12 01:24:25;;;;;;;26.20;10.80;;;19.60;99.90;;;;;;5121808;27;20046;-71
2023/09/12 01:27:21;;;;;;;22.00;11.02;;;19.50;99.90;;;;;;5022257;28;20132;-71
2023/09/12 01:29:51;;;;;;;26.00;10.80;;;19.50;99.90;;;;;;5018242;28;20041;-71
2023/09/12 01:32:19;;;;;;;24.15;10.90;;;19.50;99.90;;;;;;5019210;28;20394;-71
2023/09/12 01:34:45;;;;;;;23.05;10.25;;;19.50;99.90;;;;;;5008241;28;20124;-71
2023/09/12 01:37:10;;;;;;;22.63;10.73;;;19.50;99.90;;;;;;5018377;28;20121;-71
2023/09/12 01:39:36;;;;;;;24.35;11.10;;;19.50;99.90;;;;;;5020942;28;20124;-71
2023/09/12 01:42:03;;;;;;;23.00;10.73;;;19.40;99.90;;;;;;5114450;27;20067;-71
2023/09/12 01:44:30;;;;;;;20.58;10.88;;;19.40;99.90;;;;;;5016996;28;20049;-71
2023/09/12 01:47:01;;;;;;;22.70;10.88;;;19.40;99.90;;;;;;5018965;28;20065;-71
2023/09/12 01:49:27;;;;;;;26.48;11.68;;;19.40;99.90;;;;;;5019102;28;20041;-71
2023/09/12 01:51:53;;;;;;;21.17;10.30;;;19.40;99.90;;;;;;5018635;28;20494;-71
2023/09/12 01:54:20;;;;;;;25.83;11.68;;;19.40;99.90;;;;;;5005509;28;20129;-71
2023/09/12 01:56:46;;;;;;;27.92;12.57;;;19.40;99.90;;;;;;5021671;27;20782;-71
2023/09/12 01:59:12;;;;;;;25.45;11.52;;;19.30;99.90;;;;;;5016219;28;20042;-71
2023/09/12 02:01:37;;;;;;;24.58;11.02;;;19.30;99.90;;;;;;5024170;27;20052;-71
2023/09/12 02:04:08;;;;;;;27.75;12.73;;;19.30;99.90;;;;;;5016754;28;20060;-70
2023/09/12 02:06:34;;;;;;;26.23;12.40;;;19.40;99.90;;;;;;5032268;27;20399;-71
2023/09/12 02:09:00;;;;;;;25.52;11.68;;;19.30;99.90;;;;;;5014104;28;20059;-71
2023/09/12 02:11:27;;;;;;;26.05;11.38;;;19.30;99.90;;;;;;5123541;27;20045;-71
2023/09/12 02:13:52;;;;;;;28.42;12.15;;;19.30;99.90;;;;;;5021131;27;20116;-71
2023/09/12 02:16:18;;;;;;;24.10;11.75;;;19.30;99.90;;;;;;5015084;28;20121;-70
2023/09/12 02:18:43;;;;;;;28.58;11.82;;;19.30;99.90;;;;;;5024447;28;20042;-71
2023/09/12 02:21:09;;;;;;;24.42;11.43;;;19.20;99.90;;;;;;5023006;28;20037;-71
2023/09/12 02:23:34;;;;;;;26.98;11.60;;;19.20;99.90;;;;;;5022430;28;20037;-71
2023/09/12 02:26:00;;;;;;;25.25;11.82;;;19.20;99.90;;;;;;5018842;28;20033;-71
2023/09/12 02:28:25;;;;;;;26.25;12.43;;;19.20;99.90;;;;;;5022203;28;20045;-71
2023/09/12 02:30:51;;;;;;;25.08;11.07;;;19.10;99.90;;;;;;5011001;28;20042;-71
2023/09/12 02:33:16;;;;;;;26.80;12.18;;;19.20;99.90;;;;;;5023649;27;20570;-71
2023/09/12 02:35:42;;;;;;;26.88;12.70;;;19.20;99.90;;;;;;5018275;28;20052;-71
2023/09/12 02:38:08;;;;;;;26.70;11.98;;;19.20;99.90;;;;;;5023939;28;20037;-71
2023/09/12 02:40:33;;;;;;;24.27;11.02;;;19.20;99.90;;;;;;5022596;28;20071;-71
2023/09/12 02:42:59;;;;;;;28.63;12.88;;;19.20;99.90;;;;;;5024505;28;20037;-71
2023/09/12 02:45:24;;;;;;;24.83;11.65;;;19.10;99.90;;;;;;5014758;28;20109;-71
2023/09/12 02:47:50;;;;;;;24.60;11.15;;;19.10;99.90;;;;;;5123284;27;20090;-71
2023/09/12 02:50:15;;;;;;;27.40;11.70;;;19.10;99.90;;;;;;5017870;28;20042;-71
2023/09/12 02:52:41;;;;;;;28.55;11.93;;;19.10;99.90;;;;;;5023218;28;20041;-71
2023/09/12 02:55:07;;;;;;;25.27;12.73;;;19.10;99.90;;;;;;5005778;28;20041;-71
2023/09/12 02:57:32;;;;;;;25.08;11.18;;;19.10;99.90;;;;;;5025807;28;20033;-71
2023/09/12 02:59:58;;;;;;;30.10;12.40;;;19.10;99.90;;;;;;5024785;28;20042;-71
2023/09/12 03:02:24;;;;;;;22.45;10.90;;;19.10;99.90;;;;;;5115075;27;20041;-71
2023/09/12 03:04:50;;;;;;;25.83;11.23;;;19.10;99.90;;;;;;5025172;27;22221;-71
2023/09/12 03:07:15;;;;;;;27.70;11.57;;;19.00;99.90;;;;;;5018234;28;20463;-71
2023/09/12 03:09:41;;;;;;;23.38;11.18;;;19.00;99.90;;;;;;5015488;28;20054;-72
2023/09/12 03:12:06;;;;;;;23.83;11.30;;;19.00;99.90;;;;;;5020746;28;20108;-71
2023/09/12 03:14:32;;;;;;;21.10;10.00;;;19.00;99.90;;;;;;5021500;28;20042;-71
2023/09/12 03:16:58;;;;;;;21.45;10.85;;;19.00;99.90;;;;;;5022634;28;20120;-71
2023/09/12 03:19:23;;;;;;;23.52;10.88;;;18.90;99.90;;;;;;5021862;28;20487;-71
2023/09/12 03:21:49;;;;;;;24.20;10.90;;;18.90;99.90;;;;;;5117255;27;20136;-71
2023/09/12 03:24:18;;;;;;;28.55;10.05;;;18.90;99.90;;;;;;5023618;28;20270;-71
2023/09/12 03:26:43;;;;;;;24.52;10.00;;;18.90;99.90;;;;;;5017934;28;20041;-72
2023/09/12 03:29:09;;;;;;;20.17;9.32;;;18.80;99.90;;;;;;5014431;28;20499;-71
2023/09/12 03:31:35;;;;;;;22.58;9.75;;;18.80;99.90;;;;;;5021346;28;20045;-71
2023/09/12 03:34:01;;;;;;;23.38;11.25;;;18.80;99.90;;;;;;5020075;28;20037;-71
2023/09/12 03:36:26;;;;;;;23.80;9.38;;;18.80;99.90;;;;;;5019771;28;20040;-71
2023/09/12 03:38:52;;;;;;;21.30;8.70;;;18.80;99.90;;;;;;5020233;27;20037;-71
2023/09/12 03:41:18;;;;;;;17.83;8.63;;;18.70;99.90;;;;;;5014889;28;20038;-71
2023/09/12 03:43:43;;;;;;;22.63;9.32;;;18.70;99.90;;;;;;5001122;28;20048;-71
2023/09/12 03:46:09;;;;;;;20.90;9.73;;;18.70;99.90;;;;;;5020714;28;20057;-71
2023/09/12 03:48:36;;;;;;;16.60;8.77;;;18.70;99.90;;;;;;5018369;28;20042;-71
2023/09/12 03:51:03;;;;;;;18.95;8.95;;;18.60;99.90;;;;;;5115775;27;20453;-71
2023/09/12 03:53:29;;;;;;;18.48;9.23;;;18.70;99.90;;;;;;5022595;28;20127;-71
2023/09/12 03:55:55;;;;;;;17.85;8.95;;;18.70;99.90;;;;;;5118124;27;20689;-71
2023/09/12 03:58:21;;;;;;;20.73;8.82;;;18.60;99.90;;;;;;5017982;28;20042;-71
2023/09/12 04:00:47;;;;;;;18.58;9.32;;;18.60;99.90;;;;;;5022622;27;20037;-71
2023/09/12 04:03:12;;;;;;;16.75;8.88;;;18.60;99.90;;;;;;5118888;27;20038;-71
2023/09/12 04:05:38;;;;;;;19.63;8.93;;;18.60;99.90;;;;;;5018633;28;20110;-71
2023/09/12 04:08:04;;;;;;;21.48;8.63;;;18.60;99.90;;;;;;5011486;28;20554;-71
2023/09/12 04:10:29;;;;;;;18.33;9.52;;;18.60;99.90;;;;;;4999622;28;20087;-71
2023/09/12 04:12:55;;;;;;;17.33;8.25;;;18.60;99.90;;;;;;5011431;28;20110;-71
2023/09/12 04:15:20;;;;;;;16.20;8.75;;;18.60;99.90;;;;;;5017108;28;20037;-71
2023/09/12 04:17:46;;;;;;;17.67;8.85;;;18.60;99.90;;;;;;5011387;28;20038;-71
2023/09/12 04:20:13;;;;;;;17.45;8.75;;;18.60;99.90;;;;;;5021108;28;20563;-71
2023/09/12 04:22:40;;;;;;;16.23;8.50;;;18.50;99.90;;;;;;5015351;28;20042;-71
2023/09/12 04:25:06;;;;;;;16.92;8.52;;;18.50;99.90;;;;;;5015938;28;20042;-71
2023/09/12 04:27:31;;;;;;;19.02;9.38;;;18.50;99.90;;;;;;5010669;28;20042;-71
2023/09/12 04:29:57;;;;;;;18.15;9.00;;;18.40;99.90;;;;;;5012641;28;20069;-71
2023/09/12 04:32:23;;;;;;;18.13;8.27;;;18.40;99.90;;;;;;5017155;28;20174;-71
2023/09/12 04:34:49;;;;;;;18.17;8.68;;;18.40;99.90;;;;;;5013406;28;20041;-71
2023/09/12 04:37:15;;;;;;;21.50;8.77;;;18.40;99.90;;;;;;5013133;28;20546;-71
2023/09/12 04:39:40;;;;;;;19.00;9.05;;;18.40;99.90;;;;;;5097947;27;20045;-71
2023/09/12 04:42:06;;;;;;;19.10;9.02;;;18.40;99.90;;;;;;5019817;28;20068;-70
2023/09/12 04:44:41;;;;;;;18.23;9.18;;;18.30;99.90;;;;;;5019837;28;20040;-71
2023/09/12 04:47:07;;;;;;;18.27;9.37;;;18.40;99.90;;;;;;5018154;28;20603;-71
2023/09/12 04:49:33;;;;;;;19.33;8.65;;;18.30;99.90;;;;;;5013693;28;20046;-71
2023/09/12 04:51:59;;;;;;;22.77;9.30;;;18.30;99.90;;;;;;5015053;28;20113;-71
2023/09/12 04:54:24;;;;;;;19.23;8.90;;;18.30;99.90;;;;;;5017000;28;20033;-71
2023/09/12 04:56:50;;;;;;;18.92;10.13;;;18.30;99.90;;;;;;5021106;28;20367;-71
2023/09/12 04:59:16;;;;;;;21.92;10.38;;;18.30;99.90;;;;;;5017820;28;20041;-71
2023/09/12 05:01:41;;;;;;;17.83;9.25;;;18.30;99.90;;;;;;5016444;28;20064;-71
2023/09/12 05:04:07;;;;;;;16.50;8.57;;;18.40;99.90;;;;;;5016309;28;20058;-71
2023/09/12 05:06:33;;;;;;;19.70;9.60;;;18.40;99.90;;;;;;5111830;27;20042;-71
2023/09/12 05:08:59;;;;;;;20.42;9.55;;;18.30;99.90;;;;;;5015901;28;20040;-71
2023/09/12 05:11:25;;;;;;;24.08;10.70;;;18.30;99.90;;;;;;5018268;28;20049;-71
2023/09/12 05:13:51;;;;;;;24.67;9.82;;;18.30;99.90;;;;;;5013301;28;20535;-71
2023/09/12 05:16:16;;;;;;;22.52;10.20;;;18.30;99.90;;;;;;5011065;28;20089;-71
2023/09/12 05:18:42;;;;;;;20.65;9.30;;;18.40;99.90;;;;;;5014650;28;20037;-71
2023/09/12 05:21:08;;;;;;;16.25;8.18;;;18.30;99.90;;;;;;5014241;28;21771;-71
2023/09/12 05:23:33;;;;;;;20.48;10.10;;;18.40;99.90;;;;;;5016853;28;20045;-71
2023/09/12 05:25:59;;;;;;;17.92;9.10;;;18.30;99.90;;;;;;5020181;27;20041;-71
2023/09/12 05:28:24;;;;;;;20.75;9.18;;;18.30;99.90;;;;;;5018841;28;20084;-71
2023/09/12 05:30:50;;;;;;;18.50;8.98;;;18.30;99.90;;;;;;5018385;28;20437;-71
2023/09/12 05:33:16;;;;;;;18.13;8.35;;;18.30;99.90;;;;;;5020084;27;20041;-71
2023/09/12 05:35:41;;;;;;;16.35;8.60;;;18.30;99.90;;;;;;5014911;28;20489;-71
2023/09/12 05:38:07;;;;;;;19.25;9.45;;;18.30;99.90;;;;;;5013387;28;20057;-71
2023/09/12 05:40:33;;;;;;;22.95;8.40;;;18.30;99.90;;;;;;5019098;28;20037;-71
2023/09/12 05:42:58;;;;;;;24.30;10.07;;;18.30;99.90;;;;;;5013063;28;20122;-71
2023/09/12 05:45:24;;;;;;;24.80;9.02;;;18.40;99.90;;;;;;5018416;28;20062;-71
2023/09/12 05:47:50;;;;;;;20.77;8.82;;;18.40;99.90;;;;;;5021365;28;20037;-71
2023/09/12 05:50:16;;;;;;;18.42;8.85;;;18.30;99.90;;;;;;5016616;28;20041;-71
2023/09/12 05:52:42;;;;;;;19.90;8.90;;;18.30;99.90;;;;;;5012903;27;20502;-71
2023/09/12 05:55:08;;;;;;;21.15;8.77;;;18.30;99.90;;;;;;5020486;27;20045;-72
2023/09/12 05:57:34;;;;;;;22.10;9.82;;;18.30;99.90;;;;;;5017343;28;20065;-71
2023/09/12 06:00:00;;;;;;;21.70;10.27;;;18.30;99.90;;;;;;5021178;28;20080;-71
2023/09/12 06:02:27;;;;;;;26.15;9.65;;;18.30;99.90;;;;;;5109266;27;20533;-71
2023/09/12 06:04:52;;;;;;;22.05;9.30;;;18.40;99.90;;;;;;5009449;27;20053;-71
2023/09/12 06:07:19;;;;;;;22.75;9.18;;;18.40;99.90;;;;;;5016780;28;20525;-71
2023/09/12 06:09:45;;;;;;;20.23;9.45;;;18.40;99.90;;;;;;5017067;28;20048;-71
2023/09/12 06:12:10;;;;;;;22.02;10.18;;;18.40;99.90;;;;;;5013022;28;20037;-71
2023/09/12 06:14:36;;;;;;;21.02;9.43;;;18.40;99.90;;;;;;5016631;27;20045;-71
2023/09/12 06:17:01;;;;;;;22.20;8.65;;;18.40;99.90;;;;;;5014949;27;20049;-71
2023/09/12 06:19:27;;;;;;;22.02;9.82;;;18.40;99.90;;;;;;5019408;28;20041;-71
2023/09/12 06:21:53;;;;;;;20.23;9.48;;;18.40;99.90;;;;;;5107715;27;20070;-71
2023/09/12 06:24:22;;;;;;;20.77;9.63;;;18.40;99.90;;;;;;5021992;27;20496;-71
2023/09/12 06:26:47;;;;;;;22.13;9.45;;;18.40;99.90;;;;;;5001717;28;20045;-71
2023/09/12 06:29:14;;;;;;;22.45;10.48;;;18.50;99.90;;;;;;5014109;28;20169;-71
2023/09/12 06:31:43;;;;;;;21.60;9.40;;;18.50;99.90;;;;;;5014495;28;20046;-71
2023/09/12 06:34:08;;;;;;;23.02;10.18;;;18.50;99.90;;;;;;5014978;27;20042;-72
2023/09/12 06:36:34;;;;;;;20.67;9.95;;;18.50;99.90;;;;;;5013600;28;20116;-71
2023/09/12 06:39:00;;;;;;;26.10;10.75;;;18.50;99.90;;;;;;5009882;28;20064;-71
2023/09/12 06:41:26;;;;;;;20.85;10.50;;;18.50;99.90;;;;;;5015147;28;20411;-71
2023/09/12 06:43:52;;;;;;;28.88;11.43;;;18.50;99.90;;;;;;5001276;28;21460;-71
2023/09/12 06:46:18;;;;;;;26.75;11.32;;;18.60;99.90;;;;;;5013707;28;20056;-71
2023/09/12 06:48:45;;;;;;;21.48;9.93;;;18.60;99.90;;;;;;5010148;28;20033;-71
2023/09/12 06:51:11;;;;;;;23.98;10.32;;;18.60;99.90;;;;;;5011487;28;20037;-71
2023/09/12 06:53:37;;;;;;;23.33;10.63;;;18.60;99.90;;;;;;5017245;27;20088;-71
2023/09/12 06:56:04;;;;;;;26.35;10.45;;;18.60;99.90;;;;;;5016067;27;20042;-71
2023/09/12 06:58:30;;;;;;;27.60;11.10;;;18.70;99.90;;;;;;5015101;27;20056;-71
2023/09/12 07:00:56;;;;;;;28.45;11.23;;;18.70;99.90;;;;;;5016655;27;20040;-71
2023/09/12 07:03:21;;;;;;;27.17;11.48;;;18.80;99.90;;;;;;5021710;27;20051;-71
2023/09/12 07:05:48;;;;;;;31.17;11.50;;;18.80;99.90;;;;;;5023337;28;20114;-71
2023/09/12 07:08:14;;;;;;;29.30;11.70;;;18.80;99.90;;;;;;5020075;27;20523;-71
2023/09/12 07:10:46;;;;;;;29.17;12.07;;;18.80;99.90;;;;;;5017912;27;20048;-71
2023/09/12 07:13:12;;;;;;;28.92;11.15;;;18.90;99.90;;;;;;5012426;27;20435;-71
2023/09/12 07:15:38;;;;;;;36.28;13.65;;;18.90;99.90;;;;;;5018985;28;20098;-71
2023/09/12 07:18:05;;;;;;;27.52;12.02;;;18.90;99.90;;;;;;5015475;28;20337;-71
2023/09/12 07:20:30;;;;;;;32.55;11.52;;;18.90;99.90;;;;;;5015548;28;20508;-71
2023/09/12 07:22:56;;;;;;;34.83;13.10;;;19.00;99.90;;;;;;5015754;28;20120;-71
2023/09/12 07:25:23;;;;;;;32.38;11.95;;;19.00;99.90;;;;;;5012969;28;20170;-71
2023/09/12 07:27:49;;;;;;;38.80;13.25;;;19.00;99.90;;;;;;5013618;28;21365;-70
2023/09/12 07:30:16;;;;;;;30.92;11.25;;;19.00;99.90;;;;;;5017356;28;20040;-71
2023/09/12 07:32:41;;;;;;;31.33;12.52;;;19.00;99.90;;;;;;5021347;28;20055;-71
2023/09/12 07:35:07;;;;;;;33.47;12.52;;;19.10;99.90;;;;;;5013692;28;20365;-71
2023/09/12 07:37:33;;;;;;;31.88;12.23;;;19.10;99.90;;;;;;5016527;28;20152;-71
2023/09/12 07:39:58;;;;;;;29.30;12.93;;;19.10;99.90;;;;;;5010872;28;20135;-71
2023/09/12 07:42:24;;;;;;;33.70;12.23;;;19.10;99.90;;;;;;5015822;28;20499;-71
2023/09/12 07:44:50;;;;;;;33.63;12.68;;;19.20;99.90;;;;;;5001466;27;20483;-71
2023/09/12 07:47:16;;;;;;;32.55;12.23;;;19.20;99.90;;;;;;5010993;28;20566;-71
2023/09/12 07:49:42;;;;;;;35.10;13.10;;;19.20;99.90;;;;;;5107390;27;20046;-71
2023/09/12 07:52:07;;;;;;;40.38;13.93;;;19.20;99.90;;;;;;5093099;27;20034;-71
2023/09/12 07:54:34;;;;;;;30.92;12.23;;;19.30;99.90;;;;;;5015599;28;20045;-71
2023/09/12 07:56:59;;;;;;;32.58;12.25;;;19.40;99.90;;;;;;5004302;28;20075;-71
2023/09/12 07:59:25;;;;;;;36.35;11.93;;;19.40;99.90;;;;;;5011171;28;20040;-71
2023/09/12 08:01:51;;;;;;;34.90;12.93;;;19.50;99.90;;;;;;5010162;28;20114;-71
2023/09/12 08:04:17;;;;;;;33.25;13.77;;;19.50;99.90;;;;;;5008694;28;20115;-71
2023/09/12 08:06:43;;;;;;;33.95;13.18;;;19.60;99.90;;;;;;5010960;28;20053;-71
2023/09/12 08:09:09;;;;;;;29.42;12.35;;;19.70;99.90;;;;;;5011929;28;20704;-71
2023/09/12 08:11:35;;;;;;;33.10;12.77;;;19.60;99.90;;;;;;5011253;28;20032;-71
2023/09/12 08:14:01;;;;;;;33.70;12.90;;;19.70;99.90;;;;;;5007408;28;20422;-71
2023/09/12 08:16:26;;;;;;;33.70;12.85;;;19.70;99.90;;;;;;4999549;28;20111;-71
2023/09/12 08:18:52;;;;;;;30.67;13.30;;;19.80;99.90;;;;;;5103861;27;20072;-71
2023/09/12 08:21:17;;;;;;;29.75;11.88;;;19.70;99.90;;;;;;4998578;27;20034;-71
2023/09/12 08:23:43;;;;;;;28.52;11.25;;;19.70;99.90;;;;;;5096711;27;20033;-71
2023/09/12 08:26:09;;;;;;;30.17;12.45;;;19.60;99.90;;;;;;5011011;28;20033;-71
2023/09/12 08:28:35;;;;;;;31.00;12.15;;;19.60;99.90;;;;;;5007390;27;20124;-71
2023/09/12 08:31:01;;;;;;;32.13;12.35;;;19.60;99.90;;;;;;5011175;28;20033;-71
2023/09/12 08:33:26;;;;;;;32.20;11.82;;;19.60;99.90;;;;;;5009469;28;20064;-71
2023/09/12 08:35:52;;;;;;;29.77;12.60;;;19.60;99.90;;;;;;5005002;28;20065;-71
2023/09/12 08:38:17;;;;;;;32.20;13.07;;;19.60;99.90;;;;;;5006510;28;20041;-71
2023/09/12 08:40:50;;;;;;;36.95;13.20;;;19.60;99.90;;;;;;5009144;28;20042;-71
2023/09/12 08:43:16;;;;;;;35.40;12.68;;;19.60;99.90;;;;;;5014866;28;20128;-71
2023/09/12 08:45:44;;;;;;;30.17;11.82;;;19.60;99.90;;;;;;5013916;28;20711;-71
2023/09/12 08:48:11;;;;;;;27.98;12.05;;;19.70;99.90;;;;;;5005439;28;20125;-71
2023/09/12 08:50:37;;;;;;;30.45;11.90;;;19.60;99.90;;;;;;4987142;28;20524;-72
2023/09/12 08:53:03;;;;;;;34.15;12.75;;;19.70;99.90;;;;;;5013305;28;20094;-71
2023/09/12 08:55:29;;;;;;;34.65;12.60;;;19.70;99.90;;;;;;5088057;28;20757;-71
2023/09/12 08:57:57;;;;;;;32.75;11.20;;;19.70;99.90;;;;;;5013019;28;20034;-71
2023/09/12 09:00:23;;;;;;;33.55;12.18;;;19.70;99.90;;;;;;5111802;27;20510;-71
2023/09/12 09:02:49;;;;;;;28.10;12.98;;;19.70;99.90;;;;;;5011412;28;20443;-71
2023/09/12 09:05:17;;;;;;;28.88;12.13;;;19.70;99.90;;;;;;5014288;28;20061;-71
2023/09/12 09:07:43;;;;;;;29.10;11.68;;;19.70;99.90;;;;;;5087860;27;20040;-71
2023/09/12 09:10:19;;;;;;;29.27;12.45;;;19.70;99.90;;;;;;5013536;28;20966;-71
2023/09/12 09:12:46;;;;;;;31.38;11.27;;;19.80;99.90;;;;;;5017074;28;20029;-71
2023/09/12 09:15:25;;;;;;;30.98;12.63;;;19.70;99.90;;;;;;5011984;27;20080;-73
2023/09/12 09:17:52;;;;;;;32.55;11.85;;;19.70;99.90;;;;;;5113198;27;20038;-75
2023/09/12 09:20:34;;;;;;;26.48;11.30;;;19.70;99.90;;;;;;5006902;28;20278;-73
2023/09/12 09:23:11;;;;;;;27.05;11.57;;;19.80;99.90;;;;;;5011962;28;20117;-74
2023/09/12 09:25:40;;;;;;;27.90;12.23;;;19.80;99.90;;;;;;5109037;27;20533;-74
2023/09/12 09:28:26;;;;;;;27.05;11.43;;;19.80;99.90;;;;;;5010456;27;20061;-74
2023/09/12 09:30:54;;;;;;;28.98;11.85;;;19.90;99.90;;;;;;5012814;28;20475;-73
2023/09/12 09:33:20;;;;;;;26.58;10.85;;;20.00;99.90;;;;;;4993958;28;20042;-74
2023/09/12 09:35:48;;;;;;;26.38;11.02;;;20.00;99.90;;;;;;5003650;27;20133;-73
2023/09/12 09:38:18;;;;;;;32.58;11.65;;;20.00;99.90;;;;;;5001675;28;20045;-73
2023/09/12 09:40:44;;;;;;;26.65;11.02;;;20.10;99.90;;;;;;5109639;27;20282;-74
2023/09/12 09:43:10;;;;;;;28.48;11.15;;;20.10;99.90;;;;;;5021852;27;20245;-76
2023/09/12 09:45:45;;;;;;;26.60;10.48;;;20.10;99.90;;;;;;5011367;28;20029;-77
2023/09/12 09:48:18;;;;;;;19.60;9.00;;;20.10;99.90;;;;;;5016279;28;20605;-76
2023/09/12 09:50:43;;;;;;;22.63;10.52;;;20.10;99.90;;;;;;5009272;28;20030;-76
2023/09/12 09:53:10;;;;;;;23.48;10.63;;;20.00;99.90;;;;;;4995316;28;20033;-75
2023/09/12 09:55:35;;;;;;;24.67;10.48;;;20.00;99.90;;;;;;5018629;27;20037;-74
2023/09/12 09:58:02;;;;;;;25.38;10.00;;;20.00;99.90;;;;;;5105450;27;20052;-73
2023/09/12 10:00:29;;;;;;;22.98;9.05;;;20.00;99.90;;;;;;5015638;27;20470;-74
2023/09/12 10:02:55;;;;;;;24.42;9.85;;;20.00;99.90;;;;;;5014304;27;20060;-74
2023/09/12 10:05:22;;;;;;;23.50;10.68;;;20.00;99.90;;;;;;5011180;28;20049;-74
2023/09/12 10:07:50;;;;;;;25.70;10.93;;;20.00;99.90;;;;;;5109139;27;20068;-74
2023/09/12 10:10:18;;;;;;;23.95;9.88;;;20.10;99.90;;;;;;4996716;28;20038;-74
2023/09/12 10:12:50;;;;;;;28.52;11.57;;;20.10;99.90;;;;;;5010165;28;20075;-73
2023/09/12 10:15:19;;;;;;;25.75;10.95;;;20.20;99.90;;;;;;5013013;27;20033;-74
2023/09/12 10:17:48;;;;;;;23.27;10.20;;;20.20;99.90;;;;;;5016926;27;20036;-73
2023/09/12 10:20:21;;;;;;;23.95;10.45;;;20.30;99.90;;;;;;5012545;27;20052;-73
2023/09/12 10:23:08;;;;;;;25.00;10.25;;;20.30;99.90;;;;;;5015717;28;20029;-74
2023/09/12 10:25:36;;;;;;;24.67;10.75;;;20.40;99.90;;;;;;5114224;27;20102;-73
2023/09/12 10:28:04;;;;;;;28.52;11.45;;;20.40;99.90;;;;;;5017521;28;20131;-74
2023/09/12 10:30:30;;;;;;;26.30;12.35;;;20.50;99.90;;;;;;5017267;28;20053;-72
2023/09/12 10:32:57;;;;;;;28.73;11.40;;;20.60;99.90;;;;;;5018664;28;20590;-72
2023/09/12 10:35:22;;;;;;;23.05;11.07;;;20.70;99.90;;;;;;5105387;27;20049;-72
2023/09/12 10:37:50;;;;;;;25.25;10.55;;;20.70;99.90;;;;;;5018855;27;20033;-71
2023/09/12 10:40:17;;;;;;;25.73;11.48;;;20.80;99.90;;;;;;5004608;28;20048;-72
2023/09/12 10:42:44;;;;;;;25.63;10.10;;;20.70;99.90;;;;;;5015983;27;20506;-72
2023/09/12 10:45:10;;;;;;;26.27;11.55;;;20.80;99.90;;;;;;5019079;27;20109;-71
2023/09/12 10:47:36;;;;;;;23.52;10.40;;;20.80;99.90;;;;;;5019022;27;20483;-72
2023/09/12 10:50:03;;;;;;;25.38;10.70;;;20.90;99.90;;;;;;5013563;28;20415;-71
2023/09/12 10:52:29;;;;;;;25.92;10.20;;;20.90;99.90;;;;;;5009947;27;20050;-72
2023/09/12 10:54:55;;;;;;;29.67;11.68;;;20.90;99.90;;;;;;5018443;28;20037;-72
2023/09/12 10:57:21;;;;;;;27.50;11.25;;;21.00;99.90;;;;;;5007832;27;20282;-72
2023/09/12 11:00:08;;;;;;;30.15;11.35;;;21.00;99.90;;;;;;5002165;28;20041;-71
2023/09/12 11:02:35;;;;;;;24.88;10.02;;;21.10;99.90;;;;;;5015842;28;20053;-72
2023/09/12 11:05:06;;;;;;;26.42;11.52;;;21.10;99.90;;;;;;5014581;27;20057;-72
2023/09/12 11:07:45;;;;;;;27.30;11.30;;;21.10;99.90;;;;;;5014791;28;20561;-71
2023/09/12 11:10:19;;;;;;;24.75;10.27;;;21.20;99.90;;;;;;5011906;28;20413;-71
2023/09/12 11:12:47;;;;;;;26.55;11.98;;;21.20;99.90;;;;;;5010660;28;20037;-71
2023/09/12 11:15:15;;;;;;;29.42;11.40;;;21.30;99.90;;;;;;5011454;28;20056;-71
2023/09/12 11:17:42;;;;;;;23.33;10.18;;;21.30;99.90;;;;;;5113635;27;20049;-71
2023/09/12 11:20:11;;;;;;;28.00;11.52;;;21.40;99.90;;;;;;5010961;28;20136;-71
2023/09/12 11:22:39;;;;;;;25.45;10.75;;;21.40;99.90;;;;;;5022692;27;20433;-71
2023/09/12 11:25:19;;;;;;;25.13;11.45;;;21.40;99.90;;;;;;4999082;28;20371;-71
2023/09/12 11:28:04;;;;;;;22.73;10.73;;;21.50;99.90;;;;;;5113131;27;20037;-71
2023/09/12 11:30:30;;;;;;;28.58;11.98;;;21.50;99.90;;;;;;5016965;28;20040;-71
2023/09/12 11:32:57;;;;;;;21.88;10.18;;;21.50;99.90;;;;;;5017778;28;20503;-71
2023/09/12 11:35:25;;;;;;;20.58;10.38;;;21.60;99.90;;;;;;5015058;27;20603;-70
2023/09/12 11:37:53;;;;;;;20.23;9.27;;;21.50;99.90;;;;;;5020287;28;20300;-70
2023/09/12 11:40:34;;;;;;;21.55;9.68;;;21.50;99.90;;;;;;5009105;27;20513;-70
2023/09/12 11:43:01;;;;;;;21.17;9.88;;;21.50;99.90;;;;;;5009221;27;20042;-71
2023/09/12 11:45:27;;;;;;;21.15;8.95;;;21.60;99.90;;;;;;5022823;27;20403;-71
2023/09/12 11:47:53;;;;;;;18.42;9.07;;;21.60;99.90;;;;;;5014814;28;20117;-71
2023/09/12 11:50:51;;;;;;;18.55;9.07;;;21.60;99.90;;;;;;5013130;28;20526;-71
2023/09/12 11:53:21;;;;;;;18.23;9.82;;;21.70;99.90;;;;;;5015817;28;20391;-71
2023/09/12 11:55:51;;;;;;;16.85;9.48;;;21.70;99.90;;;;;;5021485;28;20116;-70
2023/09/12 11:58:18;;;;;;;17.75;8.38;;;21.80;99.90;;;;;;5020790;27;20037;-71
2023/09/12 12:00:52;;;;;;;17.10;9.32;;;21.80;99.90;;;;;;5021979;28;20041;-71
2023/09/12 12:03:19;;;;;;;21.57;9.30;;;21.80;99.90;;;;;;5109740;27;20077;-70
2023/09/12 12:05:46;;;;;;;17.75;8.82;;;21.80;99.90;;;;;;5010451;28;20040;-71
2023/09/12 12:08:12;;;;;;;20.02;9.32;;;22.00;99.90;;;;;;5014629;28;20037;-71
2023/09/12 12:10:39;;;;;;;16.38;8.68;;;22.00;99.90;;;;;;5018443;28;20050;-71
2023/09/12 12:13:06;;;;;;;18.13;8.80;;;22.00;99.90;;;;;;5016675;28;20076;-71
2023/09/12 12:15:32;;;;;;;19.90;9.05;;;22.00;99.90;;;;;;5020966;28;20044;-71
2023/09/12 12:17:58;;;;;;;19.70;9.10;;;22.00;99.90;;;;;;5021117;28;20041;-71
2023/09/12 12:20:24;;;;;;;18.17;8.57;;;22.00;99.90;;;;;;5009665;28;20459;-71
2023/09/12 12:22:51;;;;;;;15.82;8.25;;;22.10;99.90;;;;;;5013585;28;20098;-71
2023/09/12 12:25:17;;;;;;;18.63;8.95;;;22.00;99.90;;;;;;5007448;28;20182;-71
2023/09/12 12:27:43;;;;;;;19.45;8.90;;;22.00;99.90;;;;;;5015062;28;20806;-71
2023/09/12 12:30:12;;;;;;;17.00;8.90;;;22.00;99.90;;;;;;5111041;27;20038;-71